Time;durP1;ratioP1;P1;durP2;ratioP2;P2;SDS_P1;SDS_P2;PMS_P1;PMS_P2;Temp;Humidity;BMP_temperature;BMP_pressure;BME280_temperature;BME280_humidity;BME280_pressure;Samples;Min_cycle;Max_cycle;Signal;HPM_P1;HPM_P2
2023/04/05 00:01:00;;;;;;;11.30;2.47;;;;;;;;;;5088868;28;20047;-76
2023/04/05 00:03:32;;;;;;;13.23;1.80;;;;;;;;;;5087485;28;20059;-75
2023/04/05 00:06:06;;;;;;;13.38;2.10;;;;;;;;;;5088880;28;20040;-75
2023/04/05 00:08:38;;;;;;;9.30;1.95;;;;;;;;;;5088307;28;20055;-78
2023/04/05 00:11:08;;;;;;;9.25;1.92;;;;;;;;;;5070345;28;20605;-75
2023/04/05 00:13:38;;;;;;;7.75;1.35;;;;;;;;;;5088418;28;20048;-78
2023/04/05 00:16:09;;;;;;;9.35;2.20;;;;;;;;;;5088361;28;20419;-75
2023/04/05 00:18:48;;;;;;;5.43;1.58;;;;;;;;;;5088003;28;20391;-77
2023/04/05 00:21:23;;;;;;;5.88;2.00;;;;;;;;;;5088406;28;20052;-76
2023/04/05 00:23:57;;;;;;;10.90;2.17;;;;;;;;;;5088890;28;20051;-77
2023/04/05 00:26:28;;;;;;;8.73;1.80;;;;;;;;;;5087677;28;20398;-76
2023/04/05 00:28:59;;;;;;;14.00;2.00;;;;;;;;;;5087423;28;20518;-77
2023/04/05 00:31:30;;;;;;;10.90;2.33;;;;;;;;;;5069821;28;20059;-77
2023/04/05 00:34:02;;;;;;;12.82;1.90;;;;;;;;;;5069897;28;20052;-79
2023/04/05 00:36:33;;;;;;;14.80;1.95;;;;;;;;;;5069948;28;20059;-76
2023/04/05 00:39:04;;;;;;;5.85;1.85;;;;;;;;;;5070079;28;20044;-79
2023/04/05 00:41:35;;;;;;;12.60;1.95;;;;;;;;;;5069016;28;20083;-79
2023/04/05 00:44:07;;;;;;;7.95;1.90;;;;;;;;;;5088111;28;20051;-77
2023/04/05 00:46:40;;;;;;;7.28;1.60;;;;;;;;;;5087239;28;20050;-77
2023/04/05 00:49:12;;;;;;;9.15;1.45;;;;;;;;;;5087024;28;20411;-79
2023/04/05 00:51:42;;;;;;;11.20;1.90;;;;;;;;;;5087999;28;20414;-78
2023/04/05 00:54:16;;;;;;;10.73;1.45;;;;;;;;;;5087080;28;20059;-77
2023/04/05 00:56:52;;;;;;;9.77;1.85;;;;;;;;;;5087217;28;20047;-77
2023/04/05 00:59:23;;;;;;;8.43;1.80;;;;;;;;;;5069028;28;20056;-77
2023/04/05 01:02:05;;;;;;;5.90;1.40;;;;;;;;;;5069820;28;20495;-78
2023/04/05 01:04:38;;;;;;;10.07;2.17;;;;;;;;;;5086601;28;20036;-78
2023/04/05 01:07:18;;;;;;;9.57;1.48;;;;;;;;;;5068302;28;20056;-78
2023/04/05 01:09:52;;;;;;;8.95;1.40;;;;;;;;;;5086735;28;20056;-77
2023/04/05 01:12:27;;;;;;;15.95;1.90;;;;;;;;;;5087247;28;20044;-80
2023/04/05 01:15:00;;;;;;;9.63;1.80;;;;;;;;;;5086868;28;20411;-78
2023/04/05 01:17:35;;;;;;;9.65;1.67;;;;;;;;;;5087281;28;20040;-77
2023/04/05 01:20:12;;;;;;;6.90;1.92;;;;;;;;;;5087188;28;20070;-77
2023/04/05 01:23:10;;;;;;;9.27;1.77;;;;;;;;;;5087252;28;20044;-78
2023/04/05 01:26:25;;;;;;;8.77;1.95;;;;;;;;;;5087005;28;20048;-78
2023/04/05 01:29:06;;;;;;;7.70;1.70;;;;;;;;;;5087399;28;20051;-77
2023/04/05 01:32:06;;;;;;;10.95;1.83;;;;;;;;;;5087188;28;20044;-78
2023/04/05 01:34:42;;;;;;;9.40;1.80;;;;;;;;;;5059077;28;20411;-79
2023/04/05 01:37:20;;;;;;;8.27;1.98;;;;;;;;;;5086199;28;20287;-77
2023/04/05 01:39:54;;;;;;;7.88;1.50;;;;;;;;;;5054139;28;20052;-80
2023/04/05 01:42:26;;;;;;;6.63;1.55;;;;;;;;;;5086925;28;20055;-80
2023/04/05 01:44:58;;;;;;;10.35;1.77;;;;;;;;;;5068082;28;20150;-77
2023/04/05 01:47:29;;;;;;;7.93;2.22;;;;;;;;;;5086748;28;20047;-77
2023/04/05 01:50:00;;;;;;;9.27;1.75;;;;;;;;;;5069462;28;20063;-75
2023/04/05 01:52:31;;;;;;;8.98;2.10;;;;;;;;;;5085941;28;20048;-77
2023/04/05 01:55:02;;;;;;;10.50;1.70;;;;;;;;;;5085542;28;20048;-78
2023/04/05 01:57:33;;;;;;;14.68;2.17;;;;;;;;;;5067325;28;20368;-78
2023/04/05 02:00:04;;;;;;;5.40;1.48;;;;;;;;;;5067669;28;20545;-75
2023/04/05 02:02:40;;;;;;;12.43;1.75;;;;;;;;;;5093257;28;20055;-78
2023/04/05 02:05:10;;;;;;;9.20;1.70;;;;;;;;;;5067831;28;20063;-76
2023/04/05 02:07:43;;;;;;;10.48;1.77;;;;;;;;;;5068765;28;20525;-77
2023/04/05 02:10:14;;;;;;;5.53;1.65;;;;;;;;;;5067933;28;20498;-75
2023/04/05 02:12:45;;;;;;;8.27;2.00;;;;;;;;;;5067925;28;20055;-79
2023/04/05 02:15:15;;;;;;;12.43;1.48;;;;;;;;;;5069029;28;20055;-76
2023/04/05 02:17:46;;;;;;;8.98;1.75;;;;;;;;;;5051292;28;20052;-77
2023/04/05 02:20:17;;;;;;;7.07;1.58;;;;;;;;;;5068541;28;20063;-77
2023/04/05 02:22:50;;;;;;;8.55;1.60;;;;;;;;;;5068420;28;20048;-77
2023/04/05 02:25:21;;;;;;;2.92;1.40;;;;;;;;;;5085999;28;20056;-78
2023/04/05 02:27:52;;;;;;;8.65;1.63;;;;;;;;;;5085950;28;20040;-77
2023/04/05 02:30:22;;;;;;;6.20;1.73;;;;;;;;;;5086898;28;20040;-76
2023/04/05 02:32:52;;;;;;;10.10;1.77;;;;;;;;;;5086173;28;20055;-75
2023/04/05 02:35:23;;;;;;;13.20;2.33;;;;;;;;;;5086133;28;20529;-78
2023/04/05 02:37:53;;;;;;;11.10;2.13;;;;;;;;;;5086362;28;20051;-78
2023/04/05 02:40:24;;;;;;;6.80;1.40;;;;;;;;;;5086287;28;20047;-75
2023/04/05 02:42:54;;;;;;;9.00;1.80;;;;;;;;;;5086731;28;20044;-76
2023/04/05 02:45:26;;;;;;;6.72;1.70;;;;;;;;;;5085856;28;20044;-75
2023/04/05 02:47:59;;;;;;;7.88;1.52;;;;;;;;;;5067398;28;20063;-78
2023/04/05 02:50:31;;;;;;;6.82;1.70;;;;;;;;;;5085699;28;20059;-78
2023/04/05 02:53:02;;;;;;;5.63;1.73;;;;;;;;;;5067442;28;20530;-78
2023/04/05 02:55:33;;;;;;;8.77;1.65;;;;;;;;;;5086439;28;20047;-76
2023/04/05 02:58:03;;;;;;;10.75;2.22;;;;;;;;;;5086036;28;20048;-75
2023/04/05 03:00:50;;;;;;;8.30;1.90;;;;;;;;;;5067825;28;20071;-75
2023/04/05 03:03:27;;;;;;;10.63;1.70;;;;;;;;;;5067657;28;20502;-78
2023/04/05 03:06:12;;;;;;;9.27;1.90;;;;;;;;;;5067379;28;20040;-78
2023/04/05 03:08:48;;;;;;;13.48;1.88;;;;;;;;;;5067436;28;20048;-76
2023/04/05 03:11:22;;;;;;;6.43;1.65;;;;;;;;;;5067851;28;20048;-77
2023/04/05 03:13:57;;;;;;;12.75;2.58;;;;;;;;;;5067393;28;20048;-76
2023/04/05 03:16:45;;;;;;;10.85;1.85;;;;;;;;;;5086091;28;20518;-77
2023/04/05 03:19:26;;;;;;;10.45;1.40;;;;;;;;;;5066508;28;20079;-76
2023/04/05 03:22:08;;;;;;;6.78;1.50;;;;;;;;;;5067774;28;20056;-75
2023/04/05 03:24:41;;;;;;;9.85;1.75;;;;;;;;;;5067058;28;20106;-76
2023/04/05 03:27:14;;;;;;;11.10;1.52;;;;;;;;;;5085303;28;20119;-75
2023/04/05 03:30:06;;;;;;;5.85;1.50;;;;;;;;;;5087077;28;20629;-78
2023/04/05 03:32:42;;;;;;;13.27;1.70;;;;;;;;;;5071503;28;20180;-75
2023/04/05 03:35:32;;;;;;;13.27;1.70;;;;;;;;;;5089350;28;20044;-78
2023/04/05 03:38:03;;;;;;;6.43;1.25;;;;;;;;;;5070675;28;20059;-75
2023/04/05 03:40:36;;;;;;;14.95;1.77;;;;;;;;;;5070713;28;20055;-76
2023/04/05 03:43:10;;;;;;;10.52;1.58;;;;;;;;;;5070885;28;20047;-78
2023/04/05 03:45:40;;;;;;;11.18;2.10;;;;;;;;;;5089391;28;20056;-76
2023/04/05 03:48:11;;;;;;;8.57;2.28;;;;;;;;;;5070913;28;20506;-75
2023/04/05 03:50:43;;;;;;;8.07;1.80;;;;;;;;;;5089615;28;20051;-77
2023/04/05 03:53:17;;;;;;;6.93;1.95;;;;;;;;;;5088120;28;20506;-77
2023/04/05 03:55:54;;;;;;;7.57;1.52;;;;;;;;;;5088600;28;20513;-76
2023/04/05 03:58:38;;;;;;;8.30;1.65;;;;;;;;;;5070074;28;20044;-76
2023/04/05 04:01:09;;;;;;;9.07;2.20;;;;;;;;;;5070370;28;20054;-78
2023/04/05 04:03:39;;;;;;;9.40;2.03;;;;;;;;;;5070765;28;20419;-76
2023/04/05 04:06:10;;;;;;;9.93;1.77;;;;;;;;;;5069937;28;20426;-76
2023/04/05 04:08:41;;;;;;;10.85;2.15;;;;;;;;;;5070567;28;20062;-77
2023/04/05 04:11:12;;;;;;;11.25;2.00;;;;;;;;;;5069956;28;20068;-76
2023/04/05 04:13:43;;;;;;;8.45;2.00;;;;;;;;;;5070640;28;20052;-75
2023/04/05 04:16:37;;;;;;;4.30;1.52;;;;;;;;;;5059960;28;20064;-77
2023/04/05 04:19:27;;;;;;;8.45;1.77;;;;;;;;;;5066820;28;20522;-76
2023/04/05 04:22:37;;;;;;;8.68;1.95;;;;;;;;;;5055130;28;20056;-75
2023/04/05 04:25:19;;;;;;;9.07;2.00;;;;;;;;;;5091563;28;20048;-78
2023/04/05 04:28:08;;;;;;;7.90;2.30;;;;;;;;;;5070758;28;20067;-78
2023/04/05 04:31:03;;;;;;;10.02;1.73;;;;;;;;;;5074692;28;20499;-76
2023/04/05 04:33:54;;;;;;;;;;;;;;;;;;5070086;28;20058;-77
2023/04/05 04:36:59;;;;;;;8.48;1.77;;;;;;;;;;5064524;28;19920;-76
2023/04/05 04:40:07;;;;;;;5.43;1.58;;;;;;;;;;5069900;28;20075;-76
2023/04/05 04:43:16;;;;;;;9.75;1.70;;;;;;;;;;5069267;28;20052;-76
2023/04/05 04:46:09;;;;;;;9.25;1.50;;;;;;;;;;5069904;28;20052;-79
2023/04/05 04:48:56;;;;;;;11.65;2.13;;;;;;;;;;5069766;28;20056;-78
2023/04/05 04:51:39;;;;;;;5.07;1.30;;;;;;;;;;5087463;28;20044;-79
2023/04/05 04:54:09;;;;;;;5.78;1.70;;;;;;;;;;5087701;28;20067;-78
2023/04/05 04:56:41;;;;;;;6.70;1.60;;;;;;;;;;5069536;28;20044;-76
2023/04/05 04:59:12;;;;;;;14.00;1.70;;;;;;;;;;5087644;28;20055;-77
2023/04/05 05:01:45;;;;;;;11.95;1.50;;;;;;;;;;5087730;28;20048;-76
2023/04/05 05:04:15;;;;;;;5.57;1.15;;;;;;;;;;5087543;28;20415;-76
2023/04/05 05:06:46;;;;;;;9.77;1.63;;;;;;;;;;5087400;28;20044;-77
2023/04/05 05:09:17;;;;;;;8.80;1.27;;;;;;;;;;5087994;28;20044;-78
2023/04/05 05:11:57;;;;;;;6.15;1.40;;;;;;;;;;5070525;28;20059;-77
2023/04/05 05:14:28;;;;;;;5.38;1.23;;;;;;;;;;5087797;28;20055;-76
2023/04/05 05:16:58;;;;;;;7.28;1.25;;;;;;;;;;5069069;28;20048;-76
2023/04/05 05:19:30;;;;;;;6.55;1.35;;;;;;;;;;5086630;28;20052;-79
2023/04/05 05:22:00;;;;;;;5.85;1.10;;;;;;;;;;5068517;28;20052;-76
2023/04/05 05:24:30;;;;;;;6.43;1.33;;;;;;;;;;5087612;28;20048;-79
2023/04/05 05:27:02;;;;;;;10.75;1.48;;;;;;;;;;5087400;28;20514;-77
2023/04/05 05:29:32;;;;;;;9.80;1.67;;;;;;;;;;5069456;28;20045;-78
2023/04/05 05:32:03;;;;;;;9.38;1.40;;;;;;;;;;5086726;28;20048;-77
2023/04/05 05:34:33;;;;;;;8.60;1.45;;;;;;;;;;5087073;28;20490;-78
2023/04/05 05:37:04;;;;;;;8.02;1.33;;;;;;;;;;5087647;28;20055;-77
2023/04/05 05:39:35;;;;;;;7.13;1.27;;;;;;;;;;5087076;28;20051;-77
2023/04/05 05:42:06;;;;;;;5.82;1.33;;;;;;;;;;5068857;28;20048;-79
2023/04/05 05:44:37;;;;;;;5.10;1.42;;;;;;;;;;5087039;28;20055;-76
2023/04/05 05:47:07;;;;;;;7.78;1.42;;;;;;;;;;5087049;28;20047;-77
2023/04/05 05:49:37;;;;;;;4.40;1.58;;;;;;;;;;5086739;28;20529;-79
2023/04/05 05:52:08;;;;;;;10.60;1.95;;;;;;;;;;5086217;28;20546;-79
2023/04/05 05:54:39;;;;;;;9.63;1.40;;;;;;;;;;5086675;28;20075;-79
2023/04/05 05:57:09;;;;;;;7.93;1.27;;;;;;;;;;5086552;28;20052;-80
2023/04/05 05:59:40;;;;;;;11.73;1.45;;;;;;;;;;5087248;28;20511;-79
2023/04/05 06:02:10;;;;;;;7.22;1.52;;;;;;;;;;5086859;28;20055;-78
2023/04/05 06:04:41;;;;;;;7.30;2.13;;;;;;;;;;5087025;28;20407;-77
2023/04/05 06:07:12;;;;;;;6.30;1.85;;;;;;;;;;5086404;28;20070;-78
2023/04/05 06:09:44;;;;;;;6.85;1.35;;;;;;;;;;5086653;28;20040;-77
2023/04/05 06:12:14;;;;;;;11.50;1.70;;;;;;;;;;5086445;28;20051;-78
2023/04/05 06:14:45;;;;;;;6.28;1.58;;;;;;;;;;5086600;28;20067;-76
2023/04/05 06:17:15;;;;;;;6.25;1.67;;;;;;;;;;5086377;28;20055;-79
2023/04/05 06:19:45;;;;;;;7.65;1.30;;;;;;;;;;5086521;28;20048;-79
2023/04/05 06:22:15;;;;;;;7.60;1.20;;;;;;;;;;5086103;28;20044;-77
2023/04/05 06:24:46;;;;;;;3.17;1.33;;;;;;;;;;5086099;28;20047;-76
2023/04/05 06:27:16;;;;;;;13.98;1.70;;;;;;;;;;5085649;28;20052;-78
2023/04/05 06:29:48;;;;;;;11.60;1.75;;;;;;;;;;5085439;28;20109;-77
2023/04/05 06:32:19;;;;;;;6.07;1.48;;;;;;;;;;5086778;28;20047;-76
2023/04/05 06:34:50;;;;;;;12.10;2.17;;;;;;;;;;5085703;28;20044;-77
2023/04/05 06:37:20;;;;;;;7.32;1.80;;;;;;;;;;5086628;28;20418;-76
2023/04/05 06:39:50;;;;;;;11.57;1.80;;;;;;;;;;5086086;28;20047;-77
2023/04/05 06:42:20;;;;;;;12.57;2.70;;;;;;;;;;5068501;28;20048;-78
2023/04/05 06:44:58;;;;;;;9.65;1.88;;;;;;;;;;5067539;28;20056;-78
2023/04/05 06:47:33;;;;;;;4.38;1.40;;;;;;;;;;5086763;28;20036;-79
2023/04/05 06:50:06;;;;;;;9.00;1.50;;;;;;;;;;5085958;28;20415;-77
2023/04/05 06:52:38;;;;;;;9.75;1.63;;;;;;;;;;5086091;28;20052;-78
2023/04/05 06:55:09;;;;;;;11.45;1.95;;;;;;;;;;5085960;28;20051;-76
2023/04/05 06:57:39;;;;;;;6.97;1.80;;;;;;;;;;5085910;28;20056;-76
2023/04/05 07:00:12;;;;;;;6.20;1.98;;;;;;;;;;5085824;28;20044;-79
2023/04/05 07:02:43;;;;;;;11.68;1.50;;;;;;;;;;5068109;28;20515;-77
2023/04/05 07:05:13;;;;;;;4.47;1.60;;;;;;;;;;5070131;28;20056;-76
2023/04/05 07:07:46;;;;;;;4.70;1.70;;;;;;;;;;5089939;28;20051;-76
2023/04/05 07:10:17;;;;;;;7.80;1.75;;;;;;;;;;5090660;28;20399;-76
2023/04/05 07:12:48;;;;;;;7.22;1.77;;;;;;;;;;5071715;28;20056;-79
2023/04/05 07:15:18;;;;;;;4.75;1.40;;;;;;;;;;5090118;28;20391;-76
2023/04/05 07:17:48;;;;;;;10.90;1.65;;;;;;;;;;5089368;28;20059;-79
2023/04/05 07:20:19;;;;;;;6.07;1.55;;;;;;;;;;5089663;28;20048;-78
2023/04/05 07:22:50;;;;;;;5.32;1.83;;;;;;;;;;5089995;28;20376;-77
2023/04/05 07:25:21;;;;;;;7.32;1.45;;;;;;;;;;5089579;28;20039;-79
2023/04/05 07:27:51;;;;;;;5.97;1.83;;;;;;;;;;5089101;28;20059;-77
2023/04/05 07:30:21;;;;;;;5.47;1.40;;;;;;;;;;5089989;28;20055;-77
2023/04/05 07:32:52;;;;;;;4.97;1.30;;;;;;;;;;5070959;28;20048;-78
2023/04/05 07:35:24;;;;;;;5.93;1.33;;;;;;;;;;5089577;28;20036;-79
2023/04/05 07:37:55;;;;;;;4.47;1.10;;;;;;;;;;5089545;28;20048;-78
2023/04/05 07:40:25;;;;;;;4.20;1.10;;;;;;;;;;5071380;28;20052;-77
2023/04/05 07:42:58;;;;;;;7.13;1.33;;;;;;;;;;5089317;28;20052;-79
2023/04/05 07:45:29;;;;;;;6.70;1.80;;;;;;;;;;5089116;28;20052;-76
2023/04/05 07:48:00;;;;;;;10.93;1.63;;;;;;;;;;5089499;28;20044;-80
2023/04/05 07:50:30;;;;;;;4.47;1.60;;;;;;;;;;5089218;28;20418;-77
2023/04/05 07:53:01;;;;;;;7.53;1.60;;;;;;;;;;5089213;28;20052;-79
2023/04/05 07:55:31;;;;;;;5.20;1.40;;;;;;;;;;5089269;28;20067;-77
2023/04/05 07:58:01;;;;;;;5.65;1.58;;;;;;;;;;5088908;28;20545;-79
2023/04/05 08:00:31;;;;;;;9.73;1.30;;;;;;;;;;5088446;28;20043;-78
2023/04/05 08:03:03;;;;;;;3.15;0.80;;;;;;;;;;5070417;28;20059;-79
2023/04/05 08:05:33;;;;;;;6.15;0.90;;;;;;;;;;5070317;28;20094;-77
2023/04/05 08:08:07;;;;;;;4.32;1.00;;;;;;;;;;5088557;28;20055;-77
2023/04/05 08:10:40;;;;;;;6.30;1.40;;;;;;;;;;5088914;28;20048;-79
2023/04/05 08:13:10;;;;;;;2.97;1.00;;;;;;;;;;5070136;28;20071;-77
2023/04/05 08:15:40;;;;;;;4.82;1.23;;;;;;;;;;5088150;28;20530;-77
2023/04/05 08:18:11;;;;;;;2.65;1.10;;;;;;;;;;5088435;28;20395;-78
2023/04/05 08:20:41;;;;;;;5.20;1.25;;;;;;;;;;5088608;28;20043;-78
2023/04/05 08:23:15;;;;;;;4.97;1.30;;;;;;;;;;5088457;28;20059;-76
2023/04/05 08:25:46;;;;;;;4.10;1.10;;;;;;;;;;5088787;28;20051;-77
2023/04/05 08:28:16;;;;;;;9.63;2.40;;;;;;;;;;5088508;28;20040;-78
2023/04/05 08:30:46;;;;;;;2.80;1.15;;;;;;;;;;5088541;28;20043;-78
2023/04/05 08:33:16;;;;;;;8.35;1.20;;;;;;;;;;5087773;28;20040;-77
2023/04/05 08:35:48;;;;;;;10.75;1.75;;;;;;;;;;5069980;28;20043;-77
2023/04/05 08:38:19;;;;;;;8.02;1.30;;;;;;;;;;5088294;28;20064;-76
2023/04/05 08:40:49;;;;;;;4.82;0.95;;;;;;;;;;5087775;28;20426;-77
2023/04/05 08:43:27;;;;;;;3.20;1.15;;;;;;;;;;5087894;28;20060;-77
2023/04/05 08:45:59;;;;;;;9.40;1.00;;;;;;;;;;5087336;28;20048;-79
2023/04/05 08:48:35;;;;;;;5.43;0.95;;;;;;;;;;5087485;28;20059;-79
2023/04/05 08:51:09;;;;;;;4.07;1.52;;;;;;;;;;5087992;28;20048;-79
2023/04/05 08:53:39;;;;;;;5.00;1.27;;;;;;;;;;5088221;28;20394;-78
2023/04/05 08:56:10;;;;;;;2.53;1.10;;;;;;;;;;5088209;28;20055;-78
2023/04/05 08:58:48;;;;;;;6.40;1.45;;;;;;;;;;5070362;28;20380;-78
2023/04/05 09:01:19;;;;;;;2.58;1.00;;;;;;;;;;5069375;28;20107;-77
2023/04/05 09:03:53;;;;;;;8.35;1.50;;;;;;;;;;5069290;28;20145;-76
2023/04/05 09:06:23;;;;;;;6.07;1.10;;;;;;;;;;5070083;28;20048;-77
2023/04/05 09:08:57;;;;;;;5.65;1.17;;;;;;;;;;5088180;28;20418;-78
2023/04/05 09:11:28;;;;;;;6.72;1.30;;;;;;;;;;5078122;28;20059;-77
2023/04/05 09:14:01;;;;;;;3.42;0.85;;;;;;;;;;5108103;28;20047;-77
2023/04/05 09:16:36;;;;;;;3.88;0.90;;;;;;;;;;5107539;28;20047;-76
2023/04/05 09:19:06;;;;;;;3.03;0.90;;;;;;;;;;5107242;28;20043;-78
2023/04/05 09:21:58;;;;;;;3.45;1.10;;;;;;;;;;5107962;28;20486;-76
2023/04/05 09:24:38;;;;;;;5.15;1.23;;;;;;;;;;5088948;28;20387;-77
2023/04/05 09:27:12;;;;;;;6.13;1.20;;;;;;;;;;5107470;28;20051;-78
2023/04/05 09:29:47;;;;;;;4.85;0.98;;;;;;;;;;5088538;28;20526;-78
2023/04/05 09:32:23;;;;;;;5.65;0.95;;;;;;;;;;5089834;28;20502;-76
2023/04/05 09:34:53;;;;;;;8.77;1.33;;;;;;;;;;5108041;28;20039;-78
2023/04/05 09:37:26;;;;;;;4.47;1.65;;;;;;;;;;5089401;28;20051;-77
2023/04/05 09:40:05;;;;;;;9.95;1.00;;;;;;;;;;5088177;28;20329;-78
2023/04/05 09:42:46;;;;;;;4.35;1.10;;;;;;;;;;5107247;28;20048;-78
2023/04/05 09:45:18;;;;;;;9.35;1.48;;;;;;;;;;5088063;28;20051;-78
2023/04/05 09:47:57;;;;;;;3.33;0.90;;;;;;;;;;5088176;28;20055;-78
2023/04/05 09:50:28;;;;;;;10.40;1.42;;;;;;;;;;5088798;28;20058;-79
2023/04/05 09:53:14;;;;;;;6.30;1.30;;;;;;;;;;5107257;28;20055;-75
2023/04/05 09:55:47;;;;;;;5.53;0.90;;;;;;;;;;5088445;28;20510;-77
2023/04/05 09:58:21;;;;;;;9.13;1.27;;;;;;;;;;5106959;28;20050;-78
2023/04/05 10:00:53;;;;;;;7.82;1.38;;;;;;;;;;5107242;28;20047;-77
2023/04/05 10:03:48;;;;;;;5.80;0.90;;;;;;;;;;5104602;28;20055;-78
2023/04/05 10:06:19;;;;;;;;;;;;;;;;;;5071670;28;20544;-78
2023/04/05 10:08:50;;;;;;;8.38;1.60;;;;;;;;;;5106965;28;19951;-78
2023/04/05 10:11:23;;;;;;;4.45;1.05;;;;;;;;;;5107781;28;20494;-76
2023/04/05 10:13:56;;;;;;;11.73;1.45;;;;;;;;;;5107133;28;20054;-77
2023/04/05 10:16:29;;;;;;;18.08;1.30;;;;;;;;;;5107496;28;20043;-77
2023/04/05 10:19:01;;;;;;;6.15;1.25;;;;;;;;;;5106892;28;20050;-79
2023/04/05 10:21:36;;;;;;;16.02;2.85;;;;;;;;;;5107275;28;20395;-77
2023/04/05 10:24:39;;;;;;;10.88;1.63;;;;;;;;;;5105770;28;20575;-79
2023/04/05 10:27:34;;;;;;;8.63;2.22;;;;;;;;;;5106442;28;20052;-78
2023/04/05 10:30:08;;;;;;;12.63;1.85;;;;;;;;;;5087995;28;20052;-79
2023/04/05 10:32:54;;;;;;;9.00;1.75;;;;;;;;;;5106812;28;21093;-76
2023/04/05 10:35:34;;;;;;;14.32;1.85;;;;;;;;;;5107160;28;20050;-78
2023/04/05 10:38:25;;;;;;;11.48;1.70;;;;;;;;;;5107492;28;20043;-78
2023/04/05 10:41:16;;;;;;;7.88;1.75;;;;;;;;;;5111279;28;20040;-79
2023/04/05 10:43:51;;;;;;;9.27;1.42;;;;;;;;;;5110708;28;20044;-80
2023/04/05 10:46:23;;;;;;;18.40;1.35;;;;;;;;;;5111864;28;20542;-79
2023/04/05 10:49:21;;;;;;;10.23;1.23;;;;;;;;;;5111445;28;20048;-78
2023/04/05 10:51:51;;;;;;;8.80;1.10;;;;;;;;;;5111133;28;20121;-77
2023/04/05 10:54:22;;;;;;;4.55;1.13;;;;;;;;;;5110768;28;20044;-78
2023/04/05 10:56:55;;;;;;;10.38;1.73;;;;;;;;;;5110840;28;20409;-78
2023/04/05 10:59:26;;;;;;;7.78;1.10;;;;;;;;;;5110531;28;20040;-76
2023/04/05 11:01:59;;;;;;;7.85;1.42;;;;;;;;;;5111505;28;20047;-76
2023/04/05 11:04:32;;;;;;;8.90;1.75;;;;;;;;;;5111416;28;20047;-77
2023/04/05 11:07:18;;;;;;;7.10;1.58;;;;;;;;;;5110802;28;20646;-77
2023/04/05 11:09:56;;;;;;;9.40;1.23;;;;;;;;;;5111986;28;20040;-76
2023/04/05 11:12:47;;;;;;;17.42;2.08;;;;;;;;;;5111385;28;20417;-80
2023/04/05 11:15:27;;;;;;;7.57;1.30;;;;;;;;;;5091937;28;20532;-79
2023/04/05 11:18:17;;;;;;;7.53;1.23;;;;;;;;;;5111024;28;20059;-77
2023/04/05 11:20:56;;;;;;;6.35;1.25;;;;;;;;;;5111659;28;20043;-76
2023/04/05 11:23:26;;;;;;;9.98;1.35;;;;;;;;;;5110642;28;20051;-77
2023/04/05 11:26:05;;;;;;;12.95;1.20;;;;;;;;;;5110068;28;20046;-75
2023/04/05 11:28:40;;;;;;;10.48;1.83;;;;;;;;;;5110505;28;20054;-77
2023/04/05 11:31:19;;;;;;;10.05;1.42;;;;;;;;;;5109946;28;20047;-75
2023/04/05 11:33:54;;;;;;;4.45;1.20;;;;;;;;;;5110365;28;20044;-78
2023/04/05 11:36:32;;;;;;;15.00;2.03;;;;;;;;;;5110267;28;20043;-78
2023/04/05 11:39:18;;;;;;;14.00;1.55;;;;;;;;;;5109819;28;20048;-78
2023/04/05 11:42:04;;;;;;;6.57;1.50;;;;;;;;;;5109653;28;20058;-77
2023/04/05 11:44:50;;;;;;;9.73;1.50;;;;;;;;;;5110315;28;20042;-74
2023/04/05 11:47:21;;;;;;;8.75;1.58;;;;;;;;;;5109791;28;20051;-77
2023/04/05 11:49:54;;;;;;;12.35;1.60;;;;;;;;;;5109506;28;20058;-76
2023/04/05 11:52:24;;;;;;;16.42;2.67;;;;;;;;;;5110021;28;20043;-75
2023/04/05 11:54:55;;;;;;;8.38;1.45;;;;;;;;;;5109481;28;20040;-76
2023/04/05 11:57:27;;;;;;;15.23;3.20;;;;;;;;;;5109428;28;20050;-76
2023/04/05 11:59:58;;;;;;;13.65;9.93;;;;;;;;;;5110517;28;20398;-79
2023/04/05 12:02:43;;;;;;;8.68;2.20;;;;;;;;;;5116353;28;20047;-78
2023/04/05 12:05:14;;;;;;;10.68;1.65;;;;;;;;;;5109728;28;20070;-77
2023/04/05 12:07:55;;;;;;;7.32;1.67;;;;;;;;;;5109162;28;20047;-76
2023/04/05 12:10:26;;;;;;;5.57;1.58;;;;;;;;;;5091693;28;20043;-77
2023/04/05 12:12:57;;;;;;;8.02;1.90;;;;;;;;;;5109494;28;20044;-78
2023/04/05 12:15:28;;;;;;;10.13;1.50;;;;;;;;;;5109630;28;20036;-78
2023/04/05 12:17:58;;;;;;;6.75;1.20;;;;;;;;;;5109155;28;20051;-75
2023/04/05 12:20:32;;;;;;;14.93;3.92;;;;;;;;;;5109919;28;20055;-78
2023/04/05 12:23:03;;;;;;;5.65;1.40;;;;;;;;;;5108878;28;20403;-77
2023/04/05 12:25:35;;;;;;;6.68;1.13;;;;;;;;;;5091647;28;20512;-76
2023/04/05 12:28:07;;;;;;;7.22;1.15;;;;;;;;;;5109449;28;20055;-77
2023/04/05 12:30:56;;;;;;;3.85;1.10;;;;;;;;;;5091159;28;20520;-77
2023/04/05 12:33:32;;;;;;;7.32;1.10;;;;;;;;;;5108883;28;20513;-77
2023/04/05 12:36:07;;;;;;;7.05;1.00;;;;;;;;;;5107983;28;20518;-79
2023/04/05 12:38:39;;;;;;;10.25;1.05;;;;;;;;;;5108992;28;20517;-75
2023/04/05 12:41:10;;;;;;;7.10;1.25;;;;;;;;;;5089570;28;20051;-76
2023/04/05 12:43:42;;;;;;;3.30;1.23;;;;;;;;;;5108807;28;20054;-75
2023/04/05 12:46:17;;;;;;;9.38;1.27;;;;;;;;;;5108958;28;20048;-76
2023/04/05 12:48:52;;;;;;;6.28;1.02;;;;;;;;;;5109096;28;20043;-77
2023/04/05 12:51:23;;;;;;;5.53;0.90;;;;;;;;;;5109585;28;20051;-76
2023/04/05 12:53:56;;;;;;;5.20;1.40;;;;;;;;;;5108169;28;20494;-79
2023/04/05 12:56:29;;;;;;;4.07;0.75;;;;;;;;;;5108973;28;20031;-78
2023/04/05 12:59:00;;;;;;;5.63;0.70;;;;;;;;;;5109038;28;20078;-79
2023/04/05 13:01:31;;;;;;;4.28;0.77;;;;;;;;;;5108902;28;20454;-78
2023/04/05 13:04:06;;;;;;;5.22;1.08;;;;;;;;;;5108884;28;20039;-78
2023/04/05 13:06:46;;;;;;;7.03;1.17;;;;;;;;;;5108825;28;20048;-77
2023/04/05 13:09:17;;;;;;;3.72;0.63;;;;;;;;;;5108657;28;20417;-76
2023/04/05 13:11:47;;;;;;;5.30;0.70;;;;;;;;;;5108122;28;20054;-78
2023/04/05 13:14:17;;;;;;;1.92;0.88;;;;;;;;;;5108995;28;20050;-77
2023/04/05 13:16:47;;;;;;;2.97;0.82;;;;;;;;;;5108544;28;20051;-80
2023/04/05 13:19:17;;;;;;;1.95;0.60;;;;;;;;;;5107948;28;20046;-76
2023/04/05 13:22:00;;;;;;;3.10;1.05;;;;;;;;;;5108469;28;20043;-78
2023/04/05 13:24:30;;;;;;;2.45;0.75;;;;;;;;;;5107944;28;20039;-76
2023/04/05 13:27:01;;;;;;;10.85;0.98;;;;;;;;;;5107582;28;20062;-75
2023/04/05 13:29:31;;;;;;;6.68;1.05;;;;;;;;;;5090433;28;20051;-77
2023/04/05 13:32:01;;;;;;;4.60;0.90;;;;;;;;;;5108752;28;20526;-75
2023/04/05 13:34:32;;;;;;;2.67;0.93;;;;;;;;;;5108199;28;20051;-76
2023/04/05 13:37:03;;;;;;;4.20;0.80;;;;;;;;;;5107721;28;20052;-78
2023/04/05 13:39:37;;;;;;;3.90;1.10;;;;;;;;;;5108317;28;20046;-76
2023/04/05 13:42:07;;;;;;;4.18;0.80;;;;;;;;;;5107770;28;20055;-77
2023/04/05 13:44:37;;;;;;;13.65;1.63;;;;;;;;;;5107695;28;20379;-78
2023/04/05 13:47:08;;;;;;;8.38;1.00;;;;;;;;;;5088641;28;20498;-78
2023/04/05 13:49:38;;;;;;;5.32;0.75;;;;;;;;;;5107786;28;20051;-76
2023/04/05 13:52:08;;;;;;;2.10;0.55;;;;;;;;;;5108583;28;20048;-75
2023/04/05 13:54:40;;;;;;;8.63;0.80;;;;;;;;;;5089668;28;20059;-78
2023/04/05 13:57:10;;;;;;;2.13;0.60;;;;;;;;;;5107970;28;20055;-79
2023/04/05 13:59:42;;;;;;;5.10;0.60;;;;;;;;;;5107606;28;20050;-78
2023/04/05 14:02:14;;;;;;;7.13;2.13;;;;;;;;;;5106884;28;20444;-76
2023/04/05 14:04:45;;;;;;;3.08;1.08;;;;;;;;;;5088142;28;20054;-76
2023/04/05 14:07:15;;;;;;;6.20;0.90;;;;;;;;;;5106728;28;20513;-75
2023/04/05 14:09:46;;;;;;;4.25;0.65;;;;;;;;;;5106959;28;20050;-77
2023/04/05 14:12:17;;;;;;;5.32;0.82;;;;;;;;;;5089040;28;20050;-77
2023/04/05 14:14:47;;;;;;;4.20;1.02;;;;;;;;;;5107245;28;20402;-76
2023/04/05 14:17:26;;;;;;;10.52;0.93;;;;;;;;;;5107761;28;20044;-78
2023/04/05 14:19:56;;;;;;;4.82;0.75;;;;;;;;;;5107241;28;20047;-76
2023/04/05 14:22:26;;;;;;;4.05;0.70;;;;;;;;;;5107706;28;20047;-77
2023/04/05 14:24:56;;;;;;;9.63;1.20;;;;;;;;;;5107293;28;20044;-79
2023/04/05 14:27:40;;;;;;;6.20;0.70;;;;;;;;;;5108243;28;20048;-77
2023/04/05 14:30:13;;;;;;;4.05;0.90;;;;;;;;;;5106813;28;20502;-78
2023/04/05 14:32:44;;;;;;;4.30;0.70;;;;;;;;;;5106902;28;20062;-75
2023/04/05 14:35:16;;;;;;;2.28;0.70;;;;;;;;;;5107590;28;20044;-77
2023/04/05 14:37:46;;;;;;;2.95;0.65;;;;;;;;;;5107095;28;20058;-79
2023/04/05 14:40:29;;;;;;;4.78;0.70;;;;;;;;;;5106293;28;20052;-77
2023/04/05 14:43:00;;;;;;;5.57;0.73;;;;;;;;;;5106685;28;20494;-75
2023/04/05 14:45:31;;;;;;;6.28;0.77;;;;;;;;;;5090035;28;20039;-76
2023/04/05 14:48:03;;;;;;;10.95;1.17;;;;;;;;;;5089222;28;20533;-77
2023/04/05 14:50:34;;;;;;;2.60;0.43;;;;;;;;;;5089953;28;20047;-77
2023/04/05 14:53:04;;;;;;;1.45;0.45;;;;;;;;;;5106737;28;20078;-79
2023/04/05 14:55:35;;;;;;;2.35;0.65;;;;;;;;;;5106713;28;20518;-77
2023/04/05 14:58:11;;;;;;;1.65;0.50;;;;;;;;;;5089633;28;20048;-81
2023/04/05 15:00:43;;;;;;;3.30;0.90;;;;;;;;;;5107492;28;20054;-77
2023/04/05 15:03:14;;;;;;;5.53;0.70;;;;;;;;;;5106664;28;20074;-79
2023/04/05 15:05:46;;;;;;;2.90;0.95;;;;;;;;;;5107708;28;20389;-78
2023/04/05 15:08:17;;;;;;;2.47;0.60;;;;;;;;;;5107702;28;20051;-78
2023/04/05 15:10:47;;;;;;;4.35;0.60;;;;;;;;;;5072843;28;20062;-80
2023/04/05 15:13:19;;;;;;;7.38;1.15;;;;;;;;;;5107453;28;20428;-76
2023/04/05 15:15:50;;;;;;;5.50;0.63;;;;;;;;;;5106534;28;20071;-77
2023/04/05 15:18:21;;;;;;;2.88;0.60;;;;;;;;;;5107475;28;20040;-76
2023/04/05 15:20:52;;;;;;;7.07;2.05;;;;;;;;;;5106640;28;20058;-76
2023/04/05 15:23:22;;;;;;;3.40;0.80;;;;;;;;;;5106390;28;20047;-77